FW2365 Weather Reports


Display with metric or nautical units.
time (UTC)temp
F
wind
direction
speed
MPH
gust
MPH
rain 1hr
in
rain 24hr
in
rain mn
in
humidity
%
barometer
mb
20240523181549 52 304 8.0 15.0 0.00 0.17 0.13 85 1020.6
20240523181047 52 276 8.0 14.0 0.00 0.17 0.13 85 1020.6
20240523180549 52 232 8.0 14.0 0.00 0.17 0.13 85 1020.4
20240523180050 52 295 6.0 13.0 0.00 0.17 0.13 86 1020.1
20240523175622 52 264 6.0 15.0 0.00 0.20 0.13 86 1020.0
20240523175047 52 269 9.0 17.0 0.00 0.20 0.13 86 1019.9
20240523174543 52 232 7.0 15.0 0.00 0.20 0.13 86 1019.9
20240523174043 52 304 8.0 17.0 0.00 0.20 0.13 86 1019.9
20240523173542 53 309 9.0 17.0 0.00 0.20 0.13 86 1019.6
20240523173042 53 291 8.0 17.0 0.00 0.20 0.13 86 1019.6
20240523172541 53 295 9.0 17.0 0.00 0.20 0.13 86 1019.3
20240523172041 53 299 10.0 18.0 0.00 0.20 0.13 87 1019.1
20240523171541 53 273 9.0 18.0 0.00 0.20 0.13 87 1019.2
20240523171040 53 284 8.0 14.0 0.00 0.20 0.13 88 1019.0
20240523170540 52 298 7.0 13.0 0.00 0.20 0.13 91 1018.8
20240523170041 52 265 2.0 4.0 0.00 0.20 0.13 94 1018.7
20240523165540 53 314 1.0 3.0 0.00 0.24 0.13 94 1018.7
20240523165039 53 314 0.0 2.0 0.00 0.24 0.13 94 1018.5
20240523164552 52 314 0.0 3.0 0.00 0.24 0.13 94 1018.5
20240523164039 52 314 1.0 3.0 0.01 0.24 0.13 94 1018.4
20240523163538 52 23 0.0 3.0 0.01 0.24 0.13 94 1018.4
20240523163039 53 30 0.0 3.0 0.01 0.24 0.13 93 1018.6
20240523162538 53 31 0.0 3.0 0.01 0.24 0.13 94 1018.6
20240523162042 53 282 0.0 3.0 0.01 0.24 0.13 94 1018.4
20240523161638 53 282 0.0 3.0 0.01 0.24 0.13 94 1018.3
20240523161038 53 282 0.0 4.0 0.01 0.24 0.13 93 1018.5
20240523160538 53 282 1.0 4.0 0.09 0.24 0.13 93 1018.5
20240523160042 53 243 1.0 3.0 0.10 0.24 0.13 93 1018.5
20240523155542 53 139 0.0 2.0 0.12 0.24 0.13 92 1018.5
20240523155039 53 139 0.0 3.0 0.12 0.24 0.13 92 1018.6
20240523154540 53 139 0.0 6.0 0.11 0.24 0.13 92 1018.7
20240523154037 54 139 2.0 8.0 0.11 0.24 0.13 90 1018.7
20240523153538 55 141 1.0 4.0 0.11 0.24 0.13 91 1018.6
20240523153037 55 142 0.0 2.0 0.11 0.24 0.13 90 1018.3
20240523152536 55 142 0.0 3.0 0.11 0.24 0.13 90 1018.2
20240523152040 56 142 1.0 3.0 0.11 0.24 0.13 88 1018.2
20240523151636 56 147 1.0 3.0 0.11 0.24 0.13 87 1018.3
20240523150501 58 293 2.0 4.0 0.02 0.15 0.04 85 1018.1
20240523150003 58 287 1.0 9.0 0.02 0.14 0.03 83 1017.9
20240523145501 59 124 2.0 9.0 0.00 0.13 0.02 82 1017.7
20240523145001 59 147 2.0 6.0 0.00 0.13 0.02 82 1017.4
20240523144502 59 260 1.0 3.0 0.00 0.13 0.02 80 1017.2
20240523144001 59 253 0.0 3.0 0.00 0.13 0.02 82 1017.1
20240523143502 60 260 1.0 8.0 0.00 0.13 0.02 82 1017.2
20240523143001 60 285 3.0 9.0 0.00 0.13 0.02 80 1017.1
20240523142600 60 271 4.0 9.0 0.00 0.13 0.02 79 1017.1
20240523142104 60 289 3.0 8.0 0.00 0.13 0.02 79 1017.2
20240523141600 60 304 3.0 8.0 0.00 0.13 0.02 80 1017.2
20240523141102 60 287 3.0 8.0 0.01 0.13 0.02 80 1017.3
20240523140558 60 304 2.0 4.0 0.01 0.13 0.02 81 1017.4
20240523140101 59 282 1.0 7.0 0.01 0.13 0.02 80 1017.4
20240523135557 59 280 3.0 7.0 0.01 0.13 0.02 78 1017.5
20240523135100 60 274 1.0 6.0 0.01 0.13 0.02 79 1017.4
20240523134559 60 268 2.0 6.0 0.01 0.13 0.02 75 1017.5
20240523134057 60 304 3.0 6.0 0.02 0.13 0.02 73 1017.5
20240523133556 60 291 4.0 6.0 0.02 0.13 0.02 70 1017.6
20240523133056 60 304 2.0 8.0 0.02 0.13 0.02 69 1017.6
20240523132558 60 297 2.0 10.0 0.02 0.13 0.02 68 1017.6
20240523132056 61 281 6.0 10.0 0.02 0.13 0.02 79 1017.5
20240523131558 61 288 5.0 9.0 0.02 0.13 0.02 78 1017.5
20240523131155 61 253 3.0 10.0 0.01 0.13 0.01 78 1017.5
20240523130554 62 295 4.0 12.0 0.01 0.13 0.01 77 1017.5
20240523130106 62 286 6.0 14.0 0.01 0.13 0.01 77 1017.5
20240523125556 62 260 6.0 14.0 0.01 0.18 0.01 77 1017.5
20240523125053 62 249 4.0 10.0 0.01 0.18 0.01 78 1017.6
20240523124557 62 266 5.0 9.0 0.01 0.18 0.01 77 1017.6
20240523124052 63 273 4.0 10.0 0.00 0.17 0.00 74 1017.7
20240523123552 63 309 4.0 10.0 0.00 0.17 0.00 71 1017.8
20240523123051 63 304 4.0 10.0 0.00 0.17 0.00 72 1017.8
20240523122551 63 291 5.0 10.0 0.00 0.17 0.00 73 1017.9
20240523122049 63 289 5.0 11.0 0.00 0.17 0.00 74 1017.9
20240523121550 64 309 7.0 11.0 0.00 0.17 0.00 73 1018.1
20240523121048 63 278 5.0 9.0 0.00 0.17 0.00 78 1018.1
20240523120546 63 268 4.0 7.0 0.00 0.17 0.00 76 1018.1
20240523120049 63 304 4.0 9.0 0.00 0.17 0.00 75 1018.3
20240523115545 63 260 5.0 11.0 0.00 0.20 0.00 72 1018.4
20240523115044 63 277 6.0 11.0 0.00 0.20 0.00 74 1018.4
20240523114544 63 299 5.0 10.0 0.00 0.20 0.00 74 1018.4
20240523114047 63 287 5.0 10.0 0.00 0.20 0.00 74 1018.5
20240523113545 63 304 4.0 10.0 0.00 0.20 0.00 73 1018.6
20240523113051 63 309 4.0 10.0 0.00 0.20 0.00 73 1018.6
20240523112542 63 278 6.0 12.0 0.00 0.20 0.00 73 1018.6
20240523112044 63 266 7.0 12.0 0.00 0.20 0.00 73 1018.7
20240523111542 63 258 4.0 10.0 0.00 0.20 0.00 74 1018.8
20240523111041 63 304 4.0 12.0 0.00 0.20 0.00 74 1018.8
20240523110540 63 297 9.0 12.0 0.00 0.20 0.00 72 1018.8
20240523110045 63 304 6.0 11.0 0.00 0.20 0.00 71 1018.8
20240523105538 63 280 3.0 9.0 0.00 0.20 0.00 75 1018.9
20240523105038 63 282 3.0 11.0 0.00 0.20 0.00 74 1018.9
20240523104539 63 269 7.0 12.0 0.00 0.20 0.00 70 1019.0
20240523104038 63 318 6.0 12.0 0.00 0.20 0.00 70 1019.1
20240523103537 63 345 4.0 10.0 0.00 0.20 0.00 76 1019.0
20240523103034 62 277 5.0 10.0 0.00 0.20 0.00 75 1019.2
20240523102532 62 304 5.0 11.0 0.00 0.20 0.00 75 1019.2
20240523102031 62 255 8.0 11.0 0.00 0.20 0.00 75 1019.2
20240523101530 61 325 5.0 9.0 0.00 0.20 0.00 77 1019.4
20240523101029 61 274 3.0 8.0 0.00 0.20 0.00 76 1019.4
20240523100527 61 309 4.0 8.0 0.00 0.20 0.00 78 1019.5
20240523100026 60 289 4.0 7.0 0.00 0.20 0.00 75 1019.5
20240523095527 60 320 1.0 8.0 0.00 0.20 0.00 74 1019.6
20240523095025 60 314 2.0 8.0 0.00 0.20 0.00 75 1019.7
20240523094523 60 280 3.0 8.0 0.00 0.20 0.00 74 1019.7
20240523094023 60 314 4.0 8.0 0.00 0.20 0.00 78 1019.7
20240523093521 59 280 1.0 9.0 0.00 0.20 0.00 73 1019.7
20240523093026 59 314 3.0 9.0 0.00 0.20 0.00 80 1019.7
20240523092521 59 287 3.0 8.0 0.00 0.20 0.00 78 1019.8
20240523092019 59 294 3.0 6.0 0.00 0.20 0.00 79 1019.8
20240523091519 59 274 2.0 5.0 0.00 0.20 0.00 81 1019.8
20240523091019 59 309 1.0 4.0 0.00 0.20 0.00 81 1019.8
20240523090517 59 314 1.0 2.0 0.00 0.20 0.00 84 1019.9
20240523090028 59 314 1.0 3.0 0.00 0.20 0.00 85 1019.9
20240523085514 58 314 1.0 4.0 0.00 0.20 0.00 86 1020.0
20240523085012 58 314 1.0 4.0 0.00 0.20 0.00 85 1020.0
20240523084511 57 129 1.0 3.0 0.00 0.20 0.00 84 1020.1
20240523084013 57 129 0.0 3.0 0.00 0.20 0.00 85 1020.2
20240523083509 56 129 1.0 3.0 0.00 0.20 0.00 86 1020.3
20240523083008 56 129 1.0 3.0 0.00 0.20 0.00 86 1020.3
20240523082508 56 129 1.0 4.0 0.00 0.20 0.00 86 1020.3
20240523082007 56 129 2.0 4.0 0.00 0.20 0.00 87 1020.2
20240523081507 56 129 2.0 3.0 0.00 0.20 0.00 87 1020.3
20240523081005 56 129 1.0 3.0 0.00 0.20 0.00 88 1020.4
20240523080505 56 129 1.0 3.0 0.00 0.20 0.00 88 1020.4
20240523080008 55 129 1.0 3.0 0.00 0.20 0.00 89 1020.5
20240523075502 55 129 0.0 2.0 0.00 0.20 0.00 89 1020.6
20240523075001 55 129 0.0 2.0 0.00 0.20 0.00 90 1020.6
20240523074502 55 129 0.0 2.0 0.00 0.20 0.00 91 1020.7
20240523074002 54 129 1.0 2.0 0.00 0.20 0.00 91 1020.7
20240523073501 54 129 0.0 4.0 0.00 0.20 0.00 91 1020.7
20240523073003 54 129 2.0 4.0 0.00 0.20 0.00 89 1020.8
20240523072600 55 124 3.0 4.0 0.00 0.20 0.00 91 1020.8
20240523072100 55 138 1.0 4.0 0.00 0.20 0.00 91 1020.8
20240523071602 55 19 0.0 3.0 0.00 0.20 0.00 92 1020.9
20240523071100 55 19 1.0 3.0 0.00 0.20 0.00 94 1020.9
20240523070557 54 19 0.0 4.0 0.00 0.20 0.00 94 1021.0
20240523070058 54 19 1.0 4.0 0.00 0.20 0.00 96 1021.1
20240523065556 54 99 1.0 3.0 0.00 0.20 0.00 97 1021.1
20240523065057 54 17 1.0 3.0 0.00 0.20 0.00 97 1021.2
20240523064553 53 16 1.0 3.0 0.00 0.20 0.00 97 1021.3
20240523064052 52 135 0.0 2.0 0.00 0.20 0.00 97 1021.3
20240523063551 51 135 0.0 1.0 0.00 0.20 0.00 96 1021.4
20240523063054 51 135 0.0 2.0 0.00 0.20 0.00 97 1021.4
20240523062550 51 135 0.0 2.0 0.00 0.20 0.00 97 1021.5
20240523062050 51 135 0.0 3.0 0.00 0.20 0.00 97 1021.4
20240523061550 51 135 0.0 3.0 0.00 0.20 0.00 97 1021.5
20240523061049 51 135 1.0 2.0 0.00 0.20 0.00 97 1021.5
20240523060548 51 135 0.0 2.0 0.00 0.20 0.00 97 1021.5
20240523060048 50 135 0.0 2.0 0.00 0.20 0.00 97 1021.4
20240523055548 50 135 0.0 2.0 0.00 0.20 0.00 97 1021.5
20240523055048 50 135 0.0 2.0 0.00 0.20 0.00 97 1021.5
20240523054555 50 135 0.0 0.0 0.00 0.20 0.00 96 1021.5
20240523054047 50 135 0.0 0.0 0.00 0.20 0.00 97 1021.5
20240523053548 50 135 0.0 0.0 0.00 0.20 0.00 97 1021.5
20240523053058 50 135 0.0 1.0 0.00 0.20 0.00 96 1021.5
20240523052549 50 135 0.0 2.0 0.00 0.20 0.00 96 1021.5
20240523052050 50 135 0.0 2.0 0.00 0.20 0.00 97 1021.5
20240523051546 50 135 0.0 1.0 0.00 0.20 0.00 97 1021.5
20240523051046 50 135 0.0 1.0 0.00 0.20 0.00 97 1021.5
20240523050546 50 135 0.0 1.0 0.00 0.20 0.00 97 1021.5
20240523050047 49 135 0.0 1.0 0.00 0.20 0.00 97 1021.5
20240523045547 49 309 0.0 1.0 0.00 0.21 0.00 97 1021.5
20240523045045 49 309 0.0 0.0 0.00 0.21 0.00 97 1021.5
20240523044545 49 309 0.0 0.0 0.00 0.21 0.00 96 1021.5
20240523044045 49 135 0.0 0.0 0.00 0.21 0.00 96 1021.5
20240523043548 49 135 0.0 0.0 0.00 0.21 0.00 96 1021.5
20240523043050 49 135 0.0 0.0 0.00 0.21 0.00 96 1021.5
20240523042544 49 135 0.0 0.0 0.00 0.21 0.00 96 1021.5
20240523042043 49 135 0.0 0.0 0.00 0.21 0.00 96 1021.4
20240523041548 49 135 0.0 0.0 0.00 0.21 0.00 96 1021.5
20240523041043 49 135 0.0 0.0 0.00 0.21 0.00 96 1021.4
20240523040543 48 135 0.0 0.0 0.00 0.21 0.00 96 1021.4
20240523040052 48 135 0.0 1.0 0.00 0.21 0.00 96 1021.4
20240523035602 48 135 0.0 1.0 0.00 0.21 0.00 96 1021.4
20240523035045 48 135 0.0 1.0 0.00 0.21 0.00 96 1021.3
20240523034541 48 135 0.0 0.0 0.00 0.21 0.00 96 1021.2
20240523034039 49 135 0.0 0.0 0.00 0.21 0.00 96 1021.2
20240523033539 49 135 0.0 0.0 0.00 0.21 0.00 96 1021.2
20240523033044 49 135 0.0 0.0 0.00 0.21 0.00 96 1021.2
20240523032538 49 135 0.0 0.0 0.00 0.21 0.00 96 1021.1
20240523032037 49 135 0.0 0.0 0.00 0.21 0.00 96 1021.1
20240523031540 49 135 0.0 1.0 0.00 0.21 0.00 96 1021.0
20240523031038 49 135 0.0 1.0 0.00 0.21 0.00 96 1020.9
20240523030542 49 135 0.0 0.0 0.00 0.21 0.00 96 1020.9
20240523030038 49 309 0.0 0.0 0.00 0.21 0.00 96 1020.9
20240523025536 49 309 0.0 0.0 0.00 0.22 0.00 96 1020.8
20240523025036 49 309 0.0 0.0 0.00 0.22 0.00 96 1020.8
20240523024536 49 309 0.0 2.0 0.00 0.22 0.00 96 1020.9
20240523024039 49 309 1.0 2.0 0.00 0.22 0.00 96 1020.8
20240523023536 49 309 0.0 0.0 0.00 0.22 0.00 96 1020.9
20240523023035 49 309 0.0 0.0 0.00 0.22 0.00 96 1020.8
20240523022535 49 309 0.0 0.0 0.00 0.22 0.00 96 1020.8
20240523022034 49 309 0.0 1.0 0.00 0.22 0.00 95 1020.8
20240523021539 49 309 0.0 2.0 0.00 0.22 0.00 95 1020.8
20240523021034 49 309 0.0 2.0 0.00 0.22 0.00 96 1020.8
20240523020533 49 309 0.0 2.0 0.00 0.22 0.00 96 1020.7
20240523020107 49 309 0.0 3.0 0.00 0.22 0.00 96 1020.7
20240523015532 49 309 1.0 3.0 0.00 0.22 0.00 96 1020.8
20240523015031 49 309 0.0 3.0 0.00 0.22 0.00 96 1020.8
20240523014533 49 309 1.0 3.0 0.00 0.22 0.00 96 1020.7
20240523014031 49 309 1.0 2.0 0.00 0.22 0.00 95 1020.7
20240523013530 49 309 0.0 3.0 0.00 0.22 0.00 95 1020.7
20240523013030 49 309 1.0 3.0 0.00 0.22 0.00 95 1020.7
20240523012529 49 309 0.0 1.0 0.00 0.22 0.00 95 1020.7
20240523012031 50 309 0.0 2.0 0.00 0.22 0.00 95 1020.6
20240523011528 50 309 0.0 3.0 0.00 0.22 0.00 95 1020.7
20240523011032 50 309 1.0 3.0 0.00 0.22 0.00 95 1020.7
20240523010527 50 309 1.0 3.0 0.00 0.22 0.00 95 1020.8
20240523010028 50 309 1.0 3.0 0.00 0.22 0.00 95 1020.8
20240523005525 50 309 0.0 2.0 0.00 0.22 0.00 95 1020.7
20240523005025 50 309 0.0 2.0 0.00 0.22 0.00 95 1020.7
20240523004531 50 309 0.0 2.0 0.00 0.22 0.00 95 1020.7
20240523004028 50 309 0.0 1.0 0.00 0.22 0.00 95 1020.8
20240523003525 50 309 0.0 1.0 0.00 0.22 0.00 95 1020.8
20240523003024 50 309 0.0 3.0 0.00 0.22 0.00 95 1020.8
20240523002524 50 309 0.0 3.0 0.00 0.22 0.00 95 1020.8
20240523002023 50 309 2.0 3.0 0.00 0.22 0.00 95 1020.8
20240523001524 50 309 0.0 0.0 0.00 0.22 0.00 95 1020.8
20240523001022 50 309 0.0 0.0 0.00 0.22 0.00 95 1020.8
20240523000521 50 309 0.0 0.0 0.00 0.22 0.00 95 1020.7
20240523000021 50 321 0.0 0.0 0.00 0.22 0.00 95 1020.8
20240522235523 50 309 0.0 0.0 0.00 0.23 0.00 95 1020.8
20240522235024 50 309 0.0 0.0 0.00 0.23 0.00 95 1020.9
20240522234522 50 309 0.0 1.0 0.00 0.23 0.00 95 1020.8
20240522234020 50 309 0.0 2.0 0.00 0.23 0.00 95 1020.8
20240522233524 50 309 0.0 2.0 0.00 0.23 0.00 95 1020.8
20240522233018 50 309 0.0 2.0 0.00 0.23 0.00 95 1020.9
20240522232518 50 309 0.0 2.0 0.00 0.23 0.00 94 1021.0
20240522232018 50 309 0.0 2.0 0.00 0.23 0.00 94 1021.0
20240522231517 50 309 0.0 2.0 0.00 0.23 0.00 94 1021.0
20240522231020 50 309 0.0 1.0 0.00 0.23 0.00 94 1021.0
20240522230516 50 309 0.0 1.0 0.00 0.23 0.00 94 1021.0
20240522230016 51 309 0.0 0.0 0.00 0.23 0.00 94 1021.0
20240522225515 51 309 0.0 0.0 0.00 0.25 0.00 94 1021.0
20240522225015 51 309 0.0 3.0 0.00 0.25 0.00 94 1021.0
20240522224515 51 309 0.0 3.0 0.00 0.25 0.00 94 1021.0
20240522224016 51 309 0.0 3.0 0.00 0.25 0.00 94 1021.0
20240522223515 51 309 1.0 3.0 0.00 0.25 0.00 94 1021.0
20240522223014 51 309 0.0 2.0 0.00 0.25 0.00 94 1021.0
20240522222514 51 309 0.0 4.0 0.00 0.25 0.00 94 1021.0
20240522222014 51 309 2.0 4.0 0.00 0.25 0.00 95 1021.0
20240522221513 51 309 0.0 3.0 0.01 0.25 0.00 95 1021.0
20240522221013 51 309 1.0 3.0 0.01 0.25 0.00 95 1021.0
20240522220511 51 309 0.0 0.0 0.01 0.25 0.00 94 1021.0
20240522220019 51 309 0.0 0.0 0.01 0.25 0.00 94 1021.0
20240522215510 51 309 0.0 0.0 0.02 0.27 0.25 94 1020.9
20240522215010 51 309 0.0 3.0 0.02 0.27 0.25 94 1020.9
20240522214511 51 309 0.0 3.0 0.03 0.27 0.25 94 1020.9
20240522214009 51 309 1.0 3.0 0.03 0.27 0.25 94 1020.9
20240522213509 51 309 1.0 3.0 0.04 0.27 0.25 94 1020.8
20240522213009 51 309 2.0 4.0 0.04 0.27 0.25 94 1020.8
20240522212508 51 309 1.0 4.0 0.04 0.27 0.25 95 1020.8
20240522212008 51 309 1.0 3.0 0.04 0.27 0.25 95 1020.7
20240522211522 51 309 0.0 2.0 0.03 0.26 0.24 95 1020.8
20240522211008 51 309 0.0 3.0 0.03 0.26 0.24 95 1020.8
20240522210510 51 309 0.0 2.0 0.03 0.26 0.24 95 1020.7
20240522210009 51 309 0.0 3.0 0.03 0.28 0.24 94 1020.8
20240522205507 51 309 0.0 3.0 0.02 0.28 0.24 94 1020.8
20240522205006 51 309 1.0 4.0 0.02 0.27 0.23 94 1020.7
20240522204507 51 309 2.0 4.0 0.01 0.26 0.22 93 1020.7
20240522204007 52 164 1.0 4.0 0.01 0.26 0.22 93 1020.7
20240522203510 52 262 2.0 6.0 0.00 0.25 0.21 93 1020.6
20240522203013 52 290 2.0 6.0 0.00 0.25 0.21 93 1020.6
20240522202505 52 285 3.0 5.0 0.00 0.25 0.21 93 1020.6
20240522202009 51 167 1.0 3.0 0.00 0.25 0.21 93 1020.4
20240522201504 51 167 0.0 3.0 0.00 0.25 0.21 93 1020.3
20240522201003 51 167 1.0 4.0 0.00 0.25 0.21 93 1020.3
20240522200506 51 167 1.0 4.0 0.00 0.25 0.21 93 1020.3
20240522200003 52 237 1.0 3.0 0.00 0.30 0.21 92 1020.3
20240522195503 52 237 0.0 3.0 0.00 0.30 0.21 92 1020.3
20240522195002 52 237 0.0 3.0 0.00 0.30 0.21 92 1020.2
20240522194501 52 237 0.0 0.0 0.00 0.30 0.21 92 1020.1
20240522194001 52 237 0.0 0.0 0.00 0.30 0.21 92 1020.0
20240522193501 52 237 0.0 0.0 0.00 0.30 0.21 92 1019.9
20240522193101 52 238 0.0 2.0 0.00 0.30 0.21 93 1020.0
20240522192600 52 238 0.0 3.0 0.00 0.30 0.21 93 1020.0
20240522192059 52 238 2.0 3.0 0.00 0.30 0.21 93 1019.9
20240522191559 52 157 0.0 2.0 0.00 0.30 0.21 93 1019.8
20240522191058 52 157 0.0 2.0 0.00 0.30 0.21 93 1019.7
20240522190602 52 157 0.0 2.0 0.00 0.30 0.21 93 1019.7
20240522190057 52 157 0.0 3.0 0.00 0.30 0.21 93 1019.6
20240522185556 52 157 0.0 3.0 0.00 0.36 0.21 92 1019.5
20240522185055 52 157 1.0 3.0 0.00 0.36 0.21 93 1019.4
20240522184555 53 157 1.0 3.0 0.00 0.36 0.21 93 1019.4
20240522184057 53 156 1.0 3.0 0.00 0.36 0.21 93 1019.4
20240522183554 53 156 1.0 4.0 0.00 0.36 0.21 94 1019.3
20240522183054 53 243 1.0 4.0 0.01 0.36 0.21 94 1019.3
20240522182554 53 162 1.0 3.0 0.01 0.36 0.21 94 1019.3
20240522182057 53 162 0.0 5.0 0.01 0.36 0.21 93 1019.2